createdAt,value
2019-01-16T00:01:47.055Z,15.37
2019-01-16T00:04:27.052Z,15.37
2019-01-16T00:07:15.782Z,16.10
2019-01-16T00:10:07.370Z,15.97
2019-01-16T00:12:52.888Z,16.70
2019-01-16T00:15:46.585Z,15.43
2019-01-16T00:18:38.031Z,15.57
2019-01-16T00:21:29.617Z,15.87
2019-01-16T00:24:23.925Z,16.90
2019-01-16T00:27:18.433Z,17.37
2019-01-16T00:30:10.964Z,15.50
2019-01-16T00:32:49.560Z,17.00
2019-01-16T00:35:40.875Z,15.90
2019-01-16T00:38:28.047Z,16.40
2019-01-16T00:41:28.760Z,16.10
2019-01-16T00:44:16.161Z,15.90
2019-01-16T00:47:08.191Z,15.90
2019-01-16T00:50:05.899Z,15.50
2019-01-16T00:52:44.805Z,16.43
2019-01-16T00:55:33.257Z,15.87
2019-01-16T00:58:20.795Z,15.60
2019-01-16T01:01:16.168Z,15.10
2019-01-16T01:04:07.722Z,15.57
2019-01-16T01:07:03.125Z,17.10
2019-01-16T01:09:52.789Z,15.63
2019-01-16T01:12:39.845Z,15.90
2019-01-16T01:15:27.775Z,15.33
2019-01-16T01:18:32.433Z,16.30
2019-01-16T01:21:24.712Z,16.70
2019-01-16T01:24:13.173Z,15.30
2019-01-16T01:27:01.636Z,17.40
2019-01-16T01:29:49.168Z,15.40
2019-01-16T01:32:42.033Z,16.77
2019-01-16T01:35:25.072Z,17.00
2019-01-16T01:38:21.219Z,18.70
2019-01-16T01:41:09.608Z,16.63
2019-01-16T01:43:58.059Z,18.07
2019-01-16T01:46:46.524Z,18.37
2019-01-16T01:49:44.014Z,19.07
2019-01-16T01:52:31.096Z,18.70
2019-01-16T01:55:19.364Z,18.60
2019-01-16T01:57:57.969Z,19.00
2019-01-16T02:00:45.857Z,19.43
2019-01-16T02:03:33.648Z,18.17
2019-01-16T02:06:20.986Z,18.10
2019-01-16T02:09:12.673Z,20.03
2019-01-16T02:12:07.438Z,19.83
2019-01-16T02:14:49.786Z,19.40
2019-01-16T02:17:56.428Z,20.30
2019-01-16T02:20:36.103Z,18.70
2019-01-16T02:23:36.879Z,19.50
2019-01-16T02:26:28.273Z,19.97
2019-01-16T02:29:34.905Z,20.80
2019-01-16T02:32:22.361Z,20.00
2019-01-16T02:35:29.522Z,21.20
2019-01-16T02:38:06.828Z,18.93
2019-01-16T02:40:48.873Z,20.50
2019-01-16T02:43:43.695Z,20.70
2019-01-16T02:46:30.863Z,20.97
2019-01-16T02:49:19.272Z,18.57
2019-01-16T02:52:13.953Z,20.00
2019-01-16T02:55:11.971Z,19.53
2019-01-16T02:57:52.568Z,18.90
2019-01-16T03:00:47.225Z,19.50
2019-01-16T03:03:44.929Z,20.27
2019-01-16T03:06:33.374Z,19.40
2019-01-16T03:09:20.517Z,18.97
2019-01-16T03:12:05.348Z,18.07
2019-01-16T03:14:44.536Z,19.03
2019-01-16T03:17:41.940Z,17.60
2019-01-16T03:20:32.249Z,19.73
2019-01-16T03:23:23.604Z,19.17
2019-01-16T03:26:03.162Z,19.00
2019-01-16T03:28:51.588Z,20.53
2019-01-16T03:31:34.905Z,18.17
2019-01-16T03:34:22.032Z,19.83
2019-01-16T03:37:22.523Z,19.47
2019-01-16T03:40:09.641Z,18.17
2019-01-16T03:42:57.059Z,18.70
2019-01-16T03:45:43.668Z,19.87
2019-01-16T03:48:32.336Z,20.10
2019-01-16T03:51:24.021Z,19.77
2019-01-16T03:54:10.390Z,19.70
2019-01-16T03:57:05.078Z,21.27
2019-01-16T04:00:11.762Z,20.10
2019-01-16T04:03:12.188Z,20.87
2019-01-16T04:05:59.796Z,19.67
2019-01-16T04:08:51.270Z,21.20
2019-01-16T04:11:32.361Z,19.30
2019-01-16T04:14:35.912Z,20.13
2019-01-16T04:17:24.980Z,20.10
2019-01-16T04:20:28.534Z,20.60
2019-01-16T04:23:20.151Z,21.17
2019-01-16T04:26:08.587Z,19.23
2019-01-16T04:29:00.202Z,20.40
2019-01-16T04:31:51.821Z,17.97
2019-01-16T04:34:40.268Z,21.37
2019-01-16T04:37:43.969Z,17.70
2019-01-16T04:40:35.209Z,19.17
2019-01-16T04:43:29.499Z,19.33
2019-01-16T04:46:20.755Z,20.37
2019-01-16T04:49:29.991Z,17.87
2019-01-16T04:52:15.071Z,18.13
2019-01-16T04:55:03.373Z,19.23
2019-01-16T04:57:57.841Z,19.90
2019-01-16T05:00:46.297Z,18.90
2019-01-16T05:03:43.809Z,18.13
2019-01-16T05:06:30.880Z,19.57
2019-01-16T05:09:19.348Z,19.17
2019-01-16T05:12:15.492Z,18.27
2019-01-16T05:14:57.182Z,18.37
2019-01-16T05:17:44.239Z,17.60
2019-01-16T05:20:32.718Z,19.00
2019-01-16T05:23:23.934Z,15.97
2019-01-16T05:26:13.329Z,19.40
2019-01-16T05:29:00.502Z,18.93
2019-01-16T05:31:47.618Z,19.80
2019-01-16T05:34:35.134Z,19.97
2019-01-16T05:37:29.786Z,20.00
2019-01-16T05:40:10.544Z,19.70
2019-01-16T05:43:14.365Z,19.63
2019-01-16T05:46:03.718Z,20.37
2019-01-16T05:48:58.470Z,21.60
2019-01-16T05:51:52.922Z,22.00
2019-01-16T05:54:44.592Z,22.10
2019-01-16T05:57:42.575Z,23.17
2019-01-16T06:00:41.813Z,23.93
2019-01-16T06:03:30.272Z,25.08
2019-01-16T06:06:10.811Z,23.03
2019-01-16T06:09:17.662Z,22.10
2019-01-16T06:12:09.169Z,21.63
2019-01-16T06:14:52.468Z,23.00
2019-01-16T06:17:46.665Z,22.73
2019-01-16T06:20:47.572Z,22.60
2019-01-16T06:23:36.022Z,22.40
2019-01-16T06:26:42.770Z,23.57
2019-01-16T06:29:33.127Z,22.57
2019-01-16T06:32:20.559Z,23.50
2019-01-16T06:35:11.913Z,24.20
2019-01-16T06:38:09.498Z,23.17
2019-01-16T06:40:56.936Z,24.50
2019-01-16T06:43:48.397Z,23.67
2019-01-16T06:46:44.548Z,23.33
2019-01-16T06:49:39.014Z,23.40
2019-01-16T06:52:18.676Z,24.70
2019-01-16T06:55:03.756Z,23.30
2019-01-16T06:57:40.465Z,22.10
2019-01-16T07:00:38.197Z,22.42
2019-01-16T07:03:26.625Z,23.50
2019-01-16T07:06:21.853Z,21.43
2019-01-16T07:09:14.927Z,21.83
2019-01-16T07:12:02.237Z,22.37
2019-01-16T07:14:49.433Z,20.17
2019-01-16T07:17:44.262Z,21.23
2019-01-16T07:20:41.953Z,19.80
2019-01-16T07:23:36.349Z,20.20
2019-01-16T07:26:40.907Z,19.30
2019-01-16T07:29:37.210Z,19.97
2019-01-16T07:32:24.433Z,18.17
2019-01-16T07:35:18.985Z,18.93
2019-01-16T07:37:57.514Z,19.00
2019-01-16T07:40:55.157Z,19.10
2019-01-16T07:43:43.875Z,19.30
2019-01-16T07:46:41.927Z,17.30
2019-01-16T07:49:45.447Z,17.90
2019-01-16T07:52:40.146Z,16.97
2019-01-16T07:55:31.812Z,16.10
2019-01-16T07:58:09.856Z,17.30
2019-01-16T08:00:57.318Z,15.73
2019-01-16T08:03:48.781Z,16.77
2019-01-16T08:06:36.031Z,14.30
2019-01-16T08:09:26.599Z,14.57
2019-01-16T08:12:27.316Z,13.80
2019-01-16T08:15:22.109Z,15.10
2019-01-16T08:18:00.088Z,13.67
2019-01-16T08:20:47.288Z,12.93
2019-01-16T08:23:34.828Z,13.87
2019-01-16T08:26:32.611Z,12.97
2019-01-16T08:29:15.329Z,12.90
2019-01-16T08:32:19.259Z,12.10
2019-01-16T08:35:10.468Z,11.70
2019-01-16T08:38:08.090Z,11.53
2019-01-16T08:40:50.203Z,12.63
2019-01-16T08:43:54.152Z,12.50
2019-01-16T08:46:33.156Z,12.50
2019-01-16T08:49:20.364Z,12.00
2019-01-16T08:52:14.970Z,11.13
2019-01-16T08:55:04.092Z,10.03
2019-01-16T08:58:01.936Z,11.87
2019-01-16T09:00:49.232Z,10.50
2019-01-16T09:03:37.025Z,11.27
2019-01-16T09:06:24.614Z,10.20
2019-01-16T09:09:11.700Z,10.33
2019-01-16T09:12:00.278Z,9.40
2019-01-16T09:14:47.558Z,9.77
2019-01-16T09:17:54.456Z,10.33
2019-01-16T09:20:45.677Z,9.80
2019-01-16T09:23:52.532Z,9.30
2019-01-16T09:26:42.486Z,11.37
2019-01-16T09:29:28.248Z,9.17
2019-01-16T09:32:15.255Z,8.20
2019-01-16T09:34:50.120Z,8.03
2019-01-16T09:37:38.549Z,7.93
2019-01-16T09:40:29.306Z,7.20
2019-01-16T09:43:17.184Z,7.93
2019-01-16T09:46:15.273Z,6.47
2019-01-16T09:49:03.717Z,8.37
2019-01-16T09:51:52.702Z,7.20
2019-01-16T09:54:39.900Z,7.43
2019-01-16T09:57:28.374Z,7.00
2019-01-16T10:00:15.633Z,7.67
2019-01-16T10:03:13.477Z,6.47
2019-01-16T10:06:02.018Z,6.50
2019-01-16T10:08:59.345Z,6.33
2019-01-16T10:12:00.532Z,5.90
2019-01-16T10:14:54.930Z,5.37
2019-01-16T10:17:49.163Z,6.40
2019-01-16T10:20:37.650Z,5.60
2019-01-16T10:23:24.698Z,5.60
2019-01-16T10:26:19.165Z,5.40
2019-01-16T10:29:06.410Z,5.30
2019-01-16T10:31:48.657Z,6.00
2019-01-16T10:34:52.456Z,5.73
2019-01-16T10:37:43.762Z,5.30
2019-01-16T10:40:30.905Z,5.50
2019-01-16T10:43:48.068Z,5.77
2019-01-16T10:46:48.957Z,5.80
2019-01-16T10:49:37.425Z,5.43
2019-01-16T10:52:31.012Z,5.63
2019-01-16T10:55:22.248Z,5.43
2019-01-16T10:58:20.559Z,5.80
2019-01-16T11:01:07.930Z,5.57
2019-01-16T11:04:14.871Z,5.87
2019-01-16T11:07:15.318Z,6.03
2019-01-16T11:10:15.652Z,6.20
2019-01-16T11:13:16.110Z,6.27
2019-01-16T11:16:03.440Z,7.30
2019-01-16T11:18:50.901Z,6.93
2019-01-16T11:21:39.362Z,7.20
2019-01-16T11:24:30.553Z,6.77
2019-01-16T11:27:17.857Z,6.97
2019-01-16T11:30:05.160Z,7.57
2019-01-16T11:33:03.024Z,6.80
2019-01-16T11:35:50.107Z,7.50
2019-01-16T11:38:37.210Z,8.43
2019-01-16T11:41:43.808Z,8.70
2019-01-16T11:44:32.271Z,8.87
2019-01-16T11:47:26.308Z,8.80
2019-01-16T11:50:24.009Z,9.33
2019-01-16T11:53:15.403Z,10.13
2019-01-16T11:55:54.293Z,10.90
2019-01-16T11:58:48.724Z,9.53
2019-01-16T12:01:35.004Z,11.50
2019-01-16T12:04:23.600Z,10.93
2019-01-16T12:07:07.584Z,11.00
2019-01-16T12:09:51.982Z,11.27
2019-01-16T12:12:52.618Z,11.23
2019-01-16T12:15:41.099Z,11.70
2019-01-16T12:18:29.863Z,11.50
2019-01-16T12:21:36.785Z,10.70
2019-01-16T12:24:25.552Z,11.90
2019-01-16T12:27:13.977Z,12.53
2019-01-16T12:30:05.481Z,12.10
2019-01-16T12:32:44.208Z,11.57
2019-01-16T12:35:34.837Z,13.03
2019-01-16T12:38:22.271Z,11.83
2019-01-16T12:41:09.383Z,12.30
2019-01-16T12:43:56.614Z,12.27
2019-01-16T12:47:00.212Z,12.87
2019-01-16T12:49:54.508Z,13.50
2019-01-16T12:52:55.040Z,12.60
2019-01-16T12:55:59.239Z,13.13
2019-01-16T12:58:47.736Z,12.30
2019-01-16T13:01:48.522Z,11.87
2019-01-16T13:04:28.454Z,12.13
2019-01-16T13:07:11.271Z,10.33
2019-01-16T13:09:57.094Z,12.30
2019-01-16T13:12:45.586Z,12.23
2019-01-16T13:15:33.193Z,10.73
2019-01-16T13:18:37.088Z,11.20
2019-01-16T13:21:40.046Z,11.17
2019-01-16T13:24:34.469Z,11.27
2019-01-16T13:27:22.211Z,10.40
2019-01-16T13:30:09.670Z,9.97
2019-01-16T13:32:51.814Z,10.23
2019-01-16T13:35:49.141Z,9.63
2019-01-16T13:38:26.221Z,9.70
2019-01-16T13:41:13.932Z,9.57
2019-01-16T13:44:17.558Z,9.67
2019-01-16T13:47:06.092Z,9.73
2019-01-16T13:49:44.244Z,9.20
2019-01-16T13:52:35.494Z,9.03
2019-01-16T13:55:27.361Z,9.00
2019-01-16T13:58:30.815Z,7.87
2019-01-16T14:01:25.903Z,8.53
2019-01-16T14:04:15.549Z,8.83
2019-01-16T14:06:56.000Z,8.60
2019-01-16T14:09:53.591Z,8.50
2019-01-16T14:12:41.309Z,8.10
2019-01-16T14:15:29.979Z,7.47
2019-01-16T14:18:06.949Z,7.73
2019-01-16T14:20:49.465Z,7.23
2019-01-16T14:23:40.907Z,7.57
2019-01-16T14:26:29.640Z,6.97
2019-01-16T14:29:22.694Z,6.70
2019-01-16T14:32:29.550Z,6.70
2019-01-16T14:35:21.069Z,7.00
2019-01-16T14:38:13.004Z,8.50
2019-01-16T14:41:04.281Z,7.20
2019-01-16T14:43:58.863Z,6.67
2019-01-16T14:46:46.068Z,6.60
2019-01-16T14:49:43.804Z,6.40
2019-01-16T14:52:47.921Z,6.83
2019-01-16T14:55:39.038Z,7.20
2019-01-16T14:58:33.399Z,7.00
2019-01-16T15:01:22.397Z,6.43
2019-01-16T15:04:09.698Z,5.93
2019-01-16T15:06:58.168Z,6.43
2019-01-16T15:09:53.957Z,7.10
2019-01-16T15:12:41.189Z,5.73
2019-01-16T15:15:32.872Z,8.30
2019-01-16T15:18:37.171Z,6.30
2019-01-16T15:21:25.077Z,7.27
2019-01-16T15:24:08.589Z,7.07
2019-01-16T15:27:15.335Z,7.27
2019-01-16T15:30:12.951Z,8.00
2019-01-16T15:33:00.344Z,7.87
2019-01-16T15:36:00.861Z,7.77
2019-01-16T15:38:48.027Z,7.43
2019-01-16T15:41:39.760Z,7.77
2019-01-16T15:44:31.498Z,9.13
2019-01-16T15:47:18.979Z,7.80
2019-01-16T15:50:06.279Z,9.33
2019-01-16T15:52:53.317Z,8.80
2019-01-16T15:55:50.909Z,9.83
2019-01-16T15:58:33.277Z,9.50
2019-01-16T16:01:32.159Z,8.03
2019-01-16T16:04:32.599Z,8.63
2019-01-16T16:07:33.208Z,8.60
2019-01-16T16:10:20.460Z,8.50
2019-01-16T16:13:10.685Z,9.73
2019-01-16T16:15:56.067Z,8.57
2019-01-16T16:18:59.682Z,9.67
2019-01-16T16:21:46.867Z,7.83
2019-01-16T16:24:47.460Z,9.93
2019-01-16T16:27:29.819Z,8.20
2019-01-16T16:30:18.463Z,9.07
2019-01-16T16:33:10.030Z,8.20
2019-01-16T16:35:58.470Z,9.00
2019-01-16T16:38:39.279Z,8.53
2019-01-16T16:41:26.471Z,8.23
2019-01-16T16:44:21.313Z,10.10
2019-01-16T16:47:08.634Z,10.20
2019-01-16T16:50:03.629Z,8.20
2019-01-16T16:52:55.132Z,8.20
2019-01-16T16:55:42.472Z,8.23
2019-01-16T16:58:30.920Z,8.93
2019-01-16T17:01:19.272Z,7.40
2019-01-16T17:04:09.553Z,8.33
2019-01-16T17:07:07.748Z,7.60
2019-01-16T17:09:53.259Z,7.97
2019-01-16T17:12:50.874Z,8.13
2019-01-16T17:15:38.388Z,8.30
2019-01-16T17:18:26.965Z,9.30
2019-01-16T17:21:31.780Z,8.77
2019-01-16T17:24:26.188Z,8.43
2019-01-16T17:27:14.109Z,7.83
2019-01-16T17:30:11.621Z,8.10
2019-01-16T17:32:51.800Z,7.57
2019-01-16T17:35:52.619Z,7.83
2019-01-16T17:38:38.648Z,9.50
2019-01-16T17:41:25.388Z,6.97
2019-01-16T17:44:12.722Z,8.50
2019-01-16T17:47:07.320Z,7.10
2019-01-16T17:50:11.087Z,8.83
2019-01-16T17:53:02.324Z,8.73
2019-01-16T17:55:56.289Z,8.30
2019-01-16T17:58:43.908Z,8.00
2019-01-16T18:01:31.176Z,10.80
2019-01-16T18:04:19.750Z,9.83
2019-01-16T18:07:02.429Z,9.10
2019-01-16T18:09:53.633Z,7.93
2019-01-16T18:12:40.731Z,8.00
2019-01-16T18:15:28.881Z,8.50
2019-01-16T18:18:20.423Z,7.37
2019-01-16T18:21:07.701Z,7.70
2019-01-16T18:23:57.021Z,7.83
2019-01-16T18:26:53.694Z,7.20
2019-01-16T18:29:33.377Z,6.40
2019-01-16T18:32:29.156Z,8.57
2019-01-16T18:35:20.400Z,7.07
2019-01-16T18:38:08.233Z,8.43
2019-01-16T18:40:56.350Z,8.43
2019-01-16T18:43:56.864Z,7.57
2019-01-16T18:46:43.116Z,7.37
2019-01-16T18:49:30.314Z,8.77
2019-01-16T18:52:15.188Z,8.57
2019-01-16T18:55:03.603Z,7.30
2019-01-16T18:57:55.200Z,7.53
2019-01-16T19:00:46.669Z,7.70
2019-01-16T19:03:41.447Z,8.70
2019-01-16T19:06:39.807Z,9.77
2019-01-16T19:09:25.251Z,7.50
2019-01-16T19:12:14.895Z,7.70
2019-01-16T19:15:01.292Z,8.10
2019-01-16T19:17:39.733Z,7.70
2019-01-16T19:20:41.014Z,8.63
2019-01-16T19:23:35.994Z,8.73
2019-01-16T19:26:24.801Z,9.10
2019-01-16T19:29:22.204Z,8.63
2019-01-16T19:32:19.428Z,9.30
2019-01-16T19:35:26.101Z,9.27
2019-01-16T19:38:20.552Z,10.10
2019-01-16T19:41:11.664Z,9.87
2019-01-16T19:43:58.885Z,9.17
2019-01-16T19:46:56.698Z,9.63
2019-01-16T19:49:44.326Z,10.20
2019-01-16T19:52:31.585Z,9.47
2019-01-16T19:55:25.950Z,8.90
2019-01-16T19:58:32.510Z,9.93
2019-01-16T20:01:32.868Z,9.63
2019-01-16T20:04:21.890Z,10.67
2019-01-16T20:07:13.685Z,8.30
2019-01-16T20:10:01.120Z,10.03
2019-01-16T20:12:38.803Z,9.33
2019-01-16T20:15:17.093Z,10.77
2019-01-16T20:18:04.891Z,9.33
2019-01-16T20:21:08.576Z,9.20
2019-01-16T20:23:51.396Z,10.33
2019-01-16T20:26:36.100Z,9.30
2019-01-16T20:29:23.461Z,9.57
2019-01-16T20:32:15.224Z,10.23
2019-01-16T20:34:52.706Z,9.30
2019-01-16T20:37:36.060Z,11.00
2019-01-16T20:40:32.491Z,10.90
2019-01-16T20:43:23.809Z,9.00
2019-01-16T20:46:03.803Z,10.93
2019-01-16T20:48:45.588Z,11.60
2019-01-16T20:51:43.169Z,10.60
2019-01-16T20:54:43.064Z,10.10
2019-01-16T20:57:29.538Z,9.97
2019-01-16T21:00:22.084Z,11.83
2019-01-16T21:03:09.312Z,10.30
2019-01-16T21:06:13.108Z,10.93
2019-01-16T21:09:04.885Z,10.53
2019-01-16T21:11:52.952Z,11.03
2019-01-16T21:14:36.529Z,10.40
2019-01-16T21:17:19.653Z,9.63
2019-01-16T21:20:00.285Z,11.43
2019-01-16T21:22:45.900Z,10.83
2019-01-16T21:25:31.833Z,10.60
2019-01-16T21:28:23.140Z,11.50
2019-01-16T21:31:09.468Z,12.43
2019-01-16T21:33:54.347Z,11.50
2019-01-16T21:37:01.252Z,11.43
2019-01-16T21:39:42.102Z,13.23
2019-01-16T21:42:40.106Z,11.50
2019-01-16T21:45:48.149Z,12.67
2019-01-16T21:48:47.797Z,12.27
2019-01-16T21:51:45.277Z,12.40
2019-01-16T21:54:39.874Z,13.40
2019-01-16T21:57:26.932Z,13.47
2019-01-16T22:00:13.796Z,13.93
2019-01-16T22:03:01.116Z,12.70
2019-01-16T22:05:52.461Z,11.57
2019-01-16T22:08:52.913Z,12.87
2019-01-16T22:11:41.518Z,13.63
2019-01-16T22:14:22.388Z,12.87
2019-01-16T22:17:23.061Z,13.80
2019-01-16T22:20:17.637Z,12.77
2019-01-16T22:22:58.813Z,13.33
2019-01-16T22:25:47.668Z,15.53
2019-01-16T22:28:26.652Z,13.67
2019-01-16T22:31:13.967Z,13.10
2019-01-16T22:34:11.607Z,13.20
2019-01-16T22:37:02.829Z,15.57
2019-01-16T22:40:03.231Z,14.73
2019-01-16T22:42:50.548Z,14.93
2019-01-16T22:45:41.786Z,15.30
2019-01-16T22:48:29.176Z,15.50
2019-01-16T22:51:33.139Z,18.80
2019-01-16T22:54:20.585Z,15.70
2019-01-16T22:56:57.374Z,17.97
2019-01-16T23:00:01.307Z,16.87
2019-01-16T23:02:53.406Z,15.70
2019-01-16T23:05:50.660Z,18.10
2019-01-16T23:08:26.814Z,17.37
2019-01-16T23:11:22.312Z,18.10
2019-01-16T23:14:13.743Z,17.83
2019-01-16T23:17:01.561Z,18.67
2019-01-16T23:19:53.126Z,19.30
2019-01-16T23:22:44.640Z,19.20
2019-01-16T23:25:35.816Z,18.13
2019-01-16T23:28:24.692Z,22.00
2019-01-16T23:31:13.136Z,20.50
2019-01-16T23:34:05.313Z,20.00
2019-01-16T23:37:09.146Z,20.37
2019-01-16T23:39:56.355Z,19.57
2019-01-16T23:42:43.343Z,21.10
2019-01-16T23:45:30.667Z,21.53
2019-01-16T23:48:16.296Z,19.80
2019-01-16T23:51:03.459Z,22.50
2019-01-16T23:53:56.141Z,21.40
2019-01-16T23:56:40.263Z,21.37
2019-01-16T23:59:27.555Z,21.30
